sensor_id;sensor_type;location;lat;lon;timestamp;pressure;altitude;pressure_sealevel;temperature;humidity
35099;BME280;21278;53.314;-1.528;2023-04-19T00:08:47;101369.03;;;2.69;92.20
35099;BME280;21278;53.314;-1.528;2023-04-19T00:13:25;101370.45;;;2.03;92.53
35099;BME280;21278;53.314;-1.528;2023-04-19T00:18:07;101361.60;;;3.05;92.11
35099;BME280;21278;53.314;-1.528;2023-04-19T00:22:48;101360.92;;;1.36;98.06
35099;BME280;21278;53.314;-1.528;2023-04-19T00:27:25;101356.03;;;3.36;95.04
35099;BME280;21278;53.314;-1.528;2023-04-19T00:32:01;101341.78;;;4.97;82.24
35099;BME280;21278;53.314;-1.528;2023-04-19T00:36:37;101344.11;;;2.97;85.36
35099;BME280;21278;53.314;-1.528;2023-04-19T00:41:14;101338.88;;;2.26;90.85
35099;BME280;21278;53.314;-1.528;2023-04-19T00:45:51;101334.57;;;4.22;82.82
35099;BME280;21278;53.314;-1.528;2023-04-19T00:50:32;101335.22;;;3.33;88.41
35099;BME280;21278;53.314;-1.528;2023-04-19T00:55:09;101330.91;;;4.17;82.55
35099;BME280;21278;53.314;-1.528;2023-04-19T00:59:50;101332.93;;;2.83;91.09
35099;BME280;21278;53.314;-1.528;2023-04-19T01:04:33;101324.95;;;3.48;85.39
35099;BME280;21278;53.314;-1.528;2023-04-19T01:09:14;101327.28;;;3.56;87.17
35099;BME280;21278;53.314;-1.528;2023-04-19T01:13:55;101323.73;;;2.15;92.63
35099;BME280;21278;53.314;-1.528;2023-04-19T01:18:36;101314.31;;;2.24;93.34
35099;BME280;21278;53.314;-1.528;2023-04-19T01:23:13;101315.78;;;2.30;92.66
35099;BME280;21278;53.314;-1.528;2023-04-19T01:27:50;101310.94;;;4.23;84.46
35099;BME280;21278;53.314;-1.528;2023-04-19T01:32:31;101309.22;;;3.26;89.40
35099;BME280;21278;53.314;-1.528;2023-04-19T01:37:07;101311.12;;;1.70;95.98
35099;BME280;21278;53.314;-1.528;2023-04-19T01:41:44;101298.93;;;3.52;86.85
35099;BME280;21278;53.314;-1.528;2023-04-19T01:46:26;101295.34;;;3.49;88.17
35099;BME280;21278;53.314;-1.528;2023-04-19T01:51:07;101290.48;;;3.99;83.31
35099;BME280;21278;53.314;-1.528;2023-04-19T01:55:45;101288.67;;;3.87;82.95
35099;BME280;21278;53.314;-1.528;2023-04-19T02:00:25;101283.68;;;3.68;86.93
35099;BME280;21278;53.314;-1.528;2023-04-19T02:05:02;101280.29;;;4.26;81.22
35099;BME280;21278;53.314;-1.528;2023-04-19T02:09:43;101279.33;;;4.34;81.14
35099;BME280;21278;53.314;-1.528;2023-04-19T02:14:20;101278.00;;;3.01;82.69
35099;BME280;21278;53.314;-1.528;2023-04-19T02:18:56;101274.47;;;4.37;83.72
35099;BME280;21278;53.314;-1.528;2023-04-19T02:23:33;101274.77;;;3.78;85.37
35099;BME280;21278;53.314;-1.528;2023-04-19T02:28:10;101270.05;;;4.35;82.49
35099;BME280;21278;53.314;-1.528;2023-04-19T02:32:51;101266.70;;;4.46;81.47
35099;BME280;21278;53.314;-1.528;2023-04-19T02:37:28;101268.72;;;3.62;83.46
35099;BME280;21278;53.314;-1.528;2023-04-19T02:42:05;101266.12;;;3.41;85.36
35099;BME280;21278;53.314;-1.528;2023-04-19T02:46:48;101261.23;;;3.23;85.23
35099;BME280;21278;53.314;-1.528;2023-04-19T02:51:27;101258.99;;;3.78;88.09
35099;BME280;21278;53.314;-1.528;2023-04-19T02:56:04;101258.50;;;4.08;86.32
35099;BME280;21278;53.314;-1.528;2023-04-19T03:00:45;101258.56;;;2.37;95.38
35099;BME280;21278;53.314;-1.528;2023-04-19T03:05:23;101259.70;;;3.20;92.10
35099;BME280;21278;53.314;-1.528;2023-04-19T03:10:04;101254.02;;;3.72;89.82
35099;BME280;21278;53.314;-1.528;2023-04-19T03:14:45;101251.39;;;2.85;95.60
35099;BME280;21278;53.314;-1.528;2023-04-19T03:19:27;101250.03;;;3.04;92.43
35099;BME280;21278;53.314;-1.528;2023-04-19T03:24:03;101248.23;;;4.13;90.60
35099;BME280;21278;53.314;-1.528;2023-04-19T03:28:40;101245.41;;;5.15;83.77
35099;BME280;21278;53.314;-1.528;2023-04-19T03:33:16;101245.00;;;4.82;81.62
35099;BME280;21278;53.314;-1.528;2023-04-19T03:37:58;101247.60;;;2.65;91.35
35099;BME280;21278;53.314;-1.528;2023-04-19T03:42:34;101242.36;;;4.24;89.09
35099;BME280;21278;53.314;-1.528;2023-04-19T03:47:11;101244.72;;;3.27;95.20
35099;BME280;21278;53.314;-1.528;2023-04-19T03:51:47;101243.59;;;4.22;92.36
35099;BME280;21278;53.314;-1.528;2023-04-19T03:56:24;101243.50;;;2.23;96.82
35099;BME280;21278;53.314;-1.528;2023-04-19T04:01:06;101239.69;;;4.37;91.71
35099;BME280;21278;53.314;-1.528;2023-04-19T04:05:47;101235.02;;;4.16;90.63
35099;BME280;21278;53.314;-1.528;2023-04-19T04:10:29;101234.00;;;4.44;90.68
35099;BME280;21278;53.314;-1.528;2023-04-19T04:15:10;101230.61;;;2.85;100.00
35099;BME280;21278;53.314;-1.528;2023-04-19T04:19:52;101231.01;;;2.23;100.00
35099;BME280;21278;53.314;-1.528;2023-04-19T04:24:37;101228.78;;;4.14;91.90
35099;BME280;21278;53.314;-1.528;2023-04-19T04:29:15;101233.32;;;3.87;97.44
35099;BME280;21278;53.314;-1.528;2023-04-19T04:33:51;101234.76;;;3.47;94.32
35099;BME280;21278;53.314;-1.528;2023-04-19T04:38:32;101234.34;;;2.65;99.80
35099;BME280;21278;53.314;-1.528;2023-04-19T04:43:09;101234.36;;;3.89;96.36
35099;BME280;21278;53.314;-1.528;2023-04-19T04:47:46;101234.99;;;4.38;95.28
35099;BME280;21278;53.314;-1.528;2023-04-19T04:52:22;101232.42;;;4.50;92.77
35099;BME280;21278;53.314;-1.528;2023-04-19T04:57:04;101229.55;;;4.95;91.99
35099;BME280;21278;53.314;-1.528;2023-04-19T05:01:40;101233.46;;;2.47;100.00
35099;BME280;21278;53.314;-1.528;2023-04-19T05:06:17;101236.43;;;2.95;100.00
35099;BME280;21278;53.314;-1.528;2023-04-19T05:10:53;101241.07;;;2.83;100.00
35099;BME280;21278;53.314;-1.528;2023-04-19T05:15:30;101245.09;;;2.94;100.00
35099;BME280;21278;53.314;-1.528;2023-04-19T05:20:07;101245.94;;;3.77;100.00
35099;BME280;21278;53.314;-1.528;2023-04-19T05:24:48;101247.30;;;3.45;100.00
35099;BME280;21278;53.314;-1.528;2023-04-19T05:29:24;101249.35;;;3.45;98.95
35099;BME280;21278;53.314;-1.528;2023-04-19T05:34:01;101246.86;;;1.88;100.00
35099;BME280;21278;53.314;-1.528;2023-04-19T05:38:37;101247.28;;;4.16;100.00
35099;BME280;21278;53.314;-1.528;2023-04-19T05:43:14;101249.12;;;3.96;100.00
35099;BME280;21278;53.314;-1.528;2023-04-19T05:47:50;101251.82;;;4.27;99.55
35099;BME280;21278;53.314;-1.528;2023-04-19T05:52:26;101252.12;;;4.65;95.97
35099;BME280;21278;53.314;-1.528;2023-04-19T05:57:03;101259.36;;;2.06;100.00
35099;BME280;21278;53.314;-1.528;2023-04-19T06:01:41;101258.54;;;2.26;100.00
35099;BME280;21278;53.314;-1.528;2023-04-19T06:06:22;101261.21;;;4.94;98.39
35099;BME280;21278;53.314;-1.528;2023-04-19T06:11:03;101260.99;;;3.82;100.00
35099;BME280;21278;53.314;-1.528;2023-04-19T06:15:46;101265.22;;;3.75;100.00
35099;BME280;21278;53.314;-1.528;2023-04-19T06:20:26;101269.65;;;4.43;99.09
35099;BME280;21278;53.314;-1.528;2023-04-19T06:25:08;101271.78;;;2.72;100.00
35099;BME280;21278;53.314;-1.528;2023-04-19T06:29:50;101273.31;;;2.44;100.00
35099;BME280;21278;53.314;-1.528;2023-04-19T06:34:31;101271.14;;;3.19;100.00
35099;BME280;21278;53.314;-1.528;2023-04-19T06:39:07;101267.84;;;3.42;100.00
35099;BME280;21278;53.314;-1.528;2023-04-19T06:43:44;101266.03;;;3.26;100.00
35099;BME280;21278;53.314;-1.528;2023-04-19T06:48:26;101268.55;;;3.81;100.00
35099;BME280;21278;53.314;-1.528;2023-04-19T06:53:02;101265.85;;;3.33;100.00
35099;BME280;21278;53.314;-1.528;2023-04-19T06:57:44;101268.58;;;3.79;100.00
35099;BME280;21278;53.314;-1.528;2023-04-19T07:02:25;101268.50;;;3.30;100.00
35099;BME280;21278;53.314;-1.528;2023-04-19T07:07:01;101267.37;;;5.14;94.80
35099;BME280;21278;53.314;-1.528;2023-04-19T07:11:38;101269.22;;;3.58;100.00
35099;BME280;21278;53.314;-1.528;2023-04-19T07:16:14;101269.21;;;3.87;100.00
35099;BME280;21278;53.314;-1.528;2023-04-19T07:20:51;101276.94;;;4.70;100.00
35099;BME280;21278;53.314;-1.528;2023-04-19T07:25:32;101274.84;;;3.31;100.00
35099;BME280;21278;53.314;-1.528;2023-04-19T07:30:10;101279.71;;;4.82;100.00
35099;BME280;21278;53.314;-1.528;2023-04-19T07:34:51;101276.04;;;3.72;100.00
35099;BME280;21278;53.314;-1.528;2023-04-19T07:39:28;101278.24;;;3.72;100.00
35099;BME280;21278;53.314;-1.528;2023-04-19T07:44:09;101280.97;;;6.44;92.83
35099;BME280;21278;53.314;-1.528;2023-04-19T07:48:45;101280.02;;;3.41;100.00
35099;BME280;21278;53.314;-1.528;2023-04-19T07:53:22;101279.43;;;4.51;100.00
35099;BME280;21278;53.314;-1.528;2023-04-19T07:57:59;101282.80;;;4.82;99.45
35099;BME280;21278;53.314;-1.528;2023-04-19T08:02:42;101295.59;;;4.88;100.00
35099;BME280;21278;53.314;-1.528;2023-04-19T08:07:22;101292.84;;;5.16;94.67
35099;BME280;21278;53.314;-1.528;2023-04-19T08:12:03;101289.29;;;5.34;92.27
35099;BME280;21278;53.314;-1.528;2023-04-19T08:16:39;101283.46;;;4.62;100.00
35099;BME280;21278;53.314;-1.528;2023-04-19T08:21:16;101280.64;;;5.73;96.58
35099;BME280;21278;53.314;-1.528;2023-04-19T08:25:52;101282.95;;;6.63;87.67
35099;BME280;21278;53.314;-1.528;2023-04-19T08:30:29;101283.70;;;6.45;86.01
35099;BME280;21278;53.314;-1.528;2023-04-19T08:35:06;101282.33;;;7.22;86.47
35099;BME280;21278;53.314;-1.528;2023-04-19T08:39:47;101290.06;;;4.43;97.11
35099;BME280;21278;53.314;-1.528;2023-04-19T08:44:24;101287.35;;;4.37;97.67
35099;BME280;21278;53.314;-1.528;2023-04-19T08:49:05;101296.27;;;4.19;100.00
35099;BME280;21278;53.314;-1.528;2023-04-19T08:53:47;101294.97;;;4.58;97.89
35099;BME280;21278;53.314;-1.528;2023-04-19T08:58:28;101289.18;;;6.37;93.23
35099;BME280;21278;53.314;-1.528;2023-04-19T09:03:06;101292.34;;;4.61;99.66
35099;BME280;21278;53.314;-1.528;2023-04-19T09:07:47;101287.34;;;4.81;97.43
35099;BME280;21278;53.314;-1.528;2023-04-19T09:12:28;101286.40;;;5.95;97.77
35099;BME280;21278;53.314;-1.528;2023-04-19T09:17:12;101290.57;;;5.16;99.53
35099;BME280;21278;53.314;-1.528;2023-04-19T09:21:51;101290.25;;;4.81;100.00
35099;BME280;21278;53.314;-1.528;2023-04-19T09:26:33;101282.27;;;4.59;100.00
35099;BME280;21278;53.314;-1.528;2023-04-19T09:31:14;101282.20;;;6.07;99.08
35099;BME280;21278;53.314;-1.528;2023-04-19T09:35:51;101274.80;;;7.23;91.56
35099;BME280;21278;53.314;-1.528;2023-04-19T09:40:33;101270.21;;;8.47;84.48
35099;BME280;21278;53.314;-1.528;2023-04-19T09:45:14;101269.98;;;6.39;92.06
35099;BME280;21278;53.314;-1.528;2023-04-19T09:50:08;101270.15;;;8.08;83.91
35099;BME280;21278;53.314;-1.528;2023-04-19T09:54:48;101268.73;;;6.99;88.72
35099;BME280;21278;53.314;-1.528;2023-04-19T09:59:29;101266.00;;;7.82;85.81
35099;BME280;21278;53.314;-1.528;2023-04-19T10:04:06;101260.20;;;7.47;87.60
35099;BME280;21278;53.314;-1.528;2023-04-19T10:08:49;101254.08;;;7.72;84.45
35099;BME280;21278;53.314;-1.528;2023-04-19T10:13:29;101253.33;;;6.22;94.40
35099;BME280;21278;53.314;-1.528;2023-04-19T10:18:10;101248.41;;;7.82;86.45
35099;BME280;21278;53.314;-1.528;2023-04-19T10:22:53;101260.90;;;5.49;97.53
35099;BME280;21278;53.314;-1.528;2023-04-19T10:27:34;101252.34;;;7.93;87.22
35099;BME280;21278;53.314;-1.528;2023-04-19T10:32:12;101247.28;;;7.19;89.89
35099;BME280;21278;53.314;-1.528;2023-04-19T10:36:52;101244.08;;;7.96;86.13
35099;BME280;21278;53.314;-1.528;2023-04-19T10:41:56;101240.88;;;8.42;89.06
35099;BME280;21278;53.314;-1.528;2023-04-19T10:46:37;101236.76;;;8.88;87.50
35099;BME280;21278;53.314;-1.528;2023-04-19T10:51:18;101236.07;;;7.18;88.70
35099;BME280;21278;53.314;-1.528;2023-04-19T10:55:59;101234.52;;;9.88;76.07
35099;BME280;21278;53.314;-1.528;2023-04-19T11:00:35;101230.98;;;7.95;84.36
35099;BME280;21278;53.314;-1.528;2023-04-19T11:05:16;101230.39;;;8.52;83.59
35099;BME280;21278;53.314;-1.528;2023-04-19T11:09:53;101229.97;;;9.95;76.82
35099;BME280;21278;53.314;-1.528;2023-04-19T11:14:31;101225.73;;;8.79;83.16
35099;BME280;21278;53.314;-1.528;2023-04-19T11:19:14;101217.17;;;8.22;81.42
35099;BME280;21278;53.314;-1.528;2023-04-19T11:24:05;101219.14;;;9.75;74.47
35099;BME280;21278;53.314;-1.528;2023-04-19T11:28:45;101210.10;;;9.56;76.18
35099;BME280;21278;53.314;-1.528;2023-04-19T11:33:22;101208.18;;;7.59;82.41
35099;BME280;21278;53.314;-1.528;2023-04-19T11:38:03;101206.00;;;9.10;77.25
35099;BME280;21278;53.314;-1.528;2023-04-19T11:42:45;101199.98;;;9.82;72.06
35099;BME280;21278;53.314;-1.528;2023-04-19T11:47:26;101201.62;;;8.37;78.59
35099;BME280;21278;53.314;-1.528;2023-04-19T11:52:08;101203.28;;;9.44;73.23
35099;BME280;21278;53.314;-1.528;2023-04-19T11:56:59;101202.35;;;8.95;74.28
35099;BME280;21278;53.314;-1.528;2023-04-19T12:01:36;101195.59;;;10.24;71.75
35099;BME280;21278;53.314;-1.528;2023-04-19T12:06:14;101184.25;;;11.05;66.40
35099;BME280;21278;53.314;-1.528;2023-04-19T12:10:55;101194.13;;;9.88;70.70
35099;BME280;21278;53.314;-1.528;2023-04-19T12:15:44;101187.52;;;10.68;64.34
35099;BME280;21278;53.314;-1.528;2023-04-19T12:20:32;101180.37;;;10.76;64.21
35099;BME280;21278;53.314;-1.528;2023-04-19T12:25:09;101177.74;;;9.93;67.08
35099;BME280;21278;53.314;-1.528;2023-04-19T12:29:51;101185.57;;;8.30;76.76
35099;BME280;21278;53.314;-1.528;2023-04-19T12:34:32;101176.33;;;9.43;70.81
35099;BME280;21278;53.314;-1.528;2023-04-19T12:39:10;101171.59;;;10.70;66.84
35099;BME280;21278;53.314;-1.528;2023-04-19T12:43:51;101179.78;;;10.49;66.93
35099;BME280;21278;53.314;-1.528;2023-04-19T12:48:32;101172.00;;;11.89;56.26
35099;BME280;21278;53.314;-1.528;2023-04-19T12:53:09;101165.75;;;10.99;56.05
35099;BME280;21278;53.314;-1.528;2023-04-19T12:57:50;101160.98;;;13.25;51.83
35099;BME280;21278;53.314;-1.528;2023-04-19T13:02:26;101166.79;;;12.09;51.36
35099;BME280;21278;53.314;-1.528;2023-04-19T13:07:03;101161.03;;;12.27;49.06
35099;BME280;21278;53.314;-1.528;2023-04-19T13:11:44;101162.68;;;12.20;49.26
35099;BME280;21278;53.314;-1.528;2023-04-19T13:16:21;101162.20;;;13.81;43.85
35099;BME280;21278;53.314;-1.528;2023-04-19T13:20:57;101163.03;;;12.39;46.45
35099;BME280;21278;53.314;-1.528;2023-04-19T13:25:34;101161.56;;;11.83;48.06
35099;BME280;21278;53.314;-1.528;2023-04-19T13:30:12;101162.03;;;13.30;45.36
35099;BME280;21278;53.314;-1.528;2023-04-19T13:34:52;101147.42;;;13.40;42.94
35099;BME280;21278;53.314;-1.528;2023-04-19T13:39:28;101146.17;;;12.67;43.76
35099;BME280;21278;53.314;-1.528;2023-04-19T13:44:05;101151.35;;;14.36;41.00
35099;BME280;21278;53.314;-1.528;2023-04-19T13:48:42;101151.16;;;12.70;39.89
35099;BME280;21278;53.314;-1.528;2023-04-19T13:53:18;101160.84;;;13.72;37.73
35099;BME280;21278;53.314;-1.528;2023-04-19T13:57:59;101145.73;;;13.09;37.93
35099;BME280;21278;53.314;-1.528;2023-04-19T14:02:36;101151.23;;;12.84;38.63
35099;BME280;21278;53.314;-1.528;2023-04-19T14:07:17;101144.73;;;13.81;34.53
35099;BME280;21278;53.314;-1.528;2023-04-19T14:11:54;101149.29;;;10.90;36.78
35099;BME280;21278;53.314;-1.528;2023-04-19T14:16:31;101153.73;;;11.79;36.19
35099;BME280;21278;53.314;-1.528;2023-04-19T14:21:08;101148.93;;;12.89;32.13
35099;BME280;21278;53.314;-1.528;2023-04-19T14:25:49;101149.64;;;12.83;30.49
35099;BME280;21278;53.314;-1.528;2023-04-19T14:30:30;101140.91;;;13.22;31.81
35099;BME280;21278;53.314;-1.528;2023-04-19T14:35:07;101153.50;;;10.55;34.17
35099;BME280;21278;53.314;-1.528;2023-04-19T14:39:49;101139.58;;;10.99;33.65
35099;BME280;21278;53.314;-1.528;2023-04-19T14:44:30;101134.93;;;11.88;32.30
35099;BME280;21278;53.314;-1.528;2023-04-19T14:49:06;101137.13;;;12.50;30.81
35099;BME280;21278;53.314;-1.528;2023-04-19T14:53:43;101132.21;;;13.37;29.93
35099;BME280;21278;53.314;-1.528;2023-04-19T14:58:25;101134.01;;;10.80;32.57
35099;BME280;21278;53.314;-1.528;2023-04-19T15:03:07;101136.08;;;11.51;33.01
35099;BME280;21278;53.314;-1.528;2023-04-19T15:07:48;101143.03;;;12.52;31.49
35099;BME280;21278;53.314;-1.528;2023-04-19T15:12:29;101151.29;;;10.36;32.23
35099;BME280;21278;53.314;-1.528;2023-04-19T15:17:06;101148.89;;;12.03;32.93
35099;BME280;21278;53.314;-1.528;2023-04-19T15:21:42;101143.49;;;12.36;33.76
35099;BME280;21278;53.314;-1.528;2023-04-19T15:26:19;101129.46;;;12.17;31.97
35099;BME280;21278;53.314;-1.528;2023-04-19T15:31:01;101134.54;;;11.92;32.84
35099;BME280;21278;53.314;-1.528;2023-04-19T15:35:42;101140.60;;;11.80;33.56
35099;BME280;21278;53.314;-1.528;2023-04-19T15:40:19;101140.27;;;10.99;35.45
35099;BME280;21278;53.314;-1.528;2023-04-19T15:45:00;101146.12;;;10.75;35.36
35099;BME280;21278;53.314;-1.528;2023-04-19T15:49:36;101164.16;;;10.23;34.84
35099;BME280;21278;53.314;-1.528;2023-04-19T15:54:13;101159.40;;;11.20;33.79
35099;BME280;21278;53.314;-1.528;2023-04-19T15:58:54;101145.54;;;13.10;32.85
35099;BME280;21278;53.314;-1.528;2023-04-19T16:03:31;101157.49;;;13.27;32.34
35099;BME280;21278;53.314;-1.528;2023-04-19T16:08:09;101159.36;;;12.15;32.80
35099;BME280;21278;53.314;-1.528;2023-04-19T16:12:50;101155.59;;;14.09;31.44
35099;BME280;21278;53.314;-1.528;2023-04-19T16:17:30;101158.98;;;12.59;32.54
35099;BME280;21278;53.314;-1.528;2023-04-19T16:22:07;101155.67;;;12.49;31.72
35099;BME280;21278;53.314;-1.528;2023-04-19T16:26:44;101153.56;;;12.43;31.89
35099;BME280;21278;53.314;-1.528;2023-04-19T16:31:20;101165.00;;;10.85;33.00
35099;BME280;21278;53.314;-1.528;2023-04-19T16:35:57;101161.43;;;11.32;33.41
35099;BME280;21278;53.314;-1.528;2023-04-19T16:40:33;101165.16;;;12.43;33.63
35099;BME280;21278;53.314;-1.528;2023-04-19T16:45:15;101163.93;;;11.47;34.89
35099;BME280;21278;53.314;-1.528;2023-04-19T16:49:51;101168.74;;;11.40;33.97
35099;BME280;21278;53.314;-1.528;2023-04-19T16:54:28;101166.57;;;11.88;34.07
35099;BME280;21278;53.314;-1.528;2023-04-19T16:59:04;101163.00;;;13.44;30.80
35099;BME280;21278;53.314;-1.528;2023-04-19T17:03:41;101169.73;;;13.10;33.12
35099;BME280;21278;53.314;-1.528;2023-04-19T17:08:22;101166.72;;;12.09;32.87
35099;BME280;21278;53.314;-1.528;2023-04-19T17:12:59;101178.17;;;10.96;35.06
35099;BME280;21278;53.314;-1.528;2023-04-19T17:17:36;101178.43;;;10.30;34.54
35099;BME280;21278;53.314;-1.528;2023-04-19T17:22:17;101181.42;;;11.91;32.61
35099;BME280;21278;53.314;-1.528;2023-04-19T17:26:53;101188.64;;;10.48;34.54
35099;BME280;21278;53.314;-1.528;2023-04-19T17:31:30;101184.94;;;12.85;32.69
35099;BME280;21278;53.314;-1.528;2023-04-19T17:36:07;101185.14;;;11.65;33.81
35099;BME280;21278;53.314;-1.528;2023-04-19T17:40:47;101184.93;;;11.25;33.60
35099;BME280;21278;53.314;-1.528;2023-04-19T17:45:24;101179.11;;;12.36;32.51
35099;BME280;21278;53.314;-1.528;2023-04-19T17:50:05;101179.20;;;11.91;33.04
35099;BME280;21278;53.314;-1.528;2023-04-19T17:54:43;101173.35;;;12.13;34.26
35099;BME280;21278;53.314;-1.528;2023-04-19T17:59:24;101172.00;;;12.48;32.73
35099;BME280;21278;53.314;-1.528;2023-04-19T18:04:05;101175.46;;;9.68;37.21
35099;BME280;21278;53.314;-1.528;2023-04-19T18:08:43;101178.72;;;10.43;35.86
35099;BME280;21278;53.314;-1.528;2023-04-19T18:13:24;101183.97;;;8.45;39.29
35099;BME280;21278;53.314;-1.528;2023-04-19T18:18:05;101190.19;;;7.47;43.16
35099;BME280;21278;53.314;-1.528;2023-04-19T18:22:42;101193.72;;;8.10;42.25
35099;BME280;21278;53.314;-1.528;2023-04-19T18:27:18;101198.70;;;7.30;42.80
35099;BME280;21278;53.314;-1.528;2023-04-19T18:31:54;101190.68;;;7.49;42.47
35099;BME280;21278;53.314;-1.528;2023-04-19T18:36:31;101191.05;;;7.14;42.33
35099;BME280;21278;53.314;-1.528;2023-04-19T18:41:08;101196.51;;;8.23;39.57
35099;BME280;21278;53.314;-1.528;2023-04-19T18:45:44;101196.70;;;7.46;42.23
35099;BME280;21278;53.314;-1.528;2023-04-19T18:50:31;101193.02;;;7.55;40.87
35099;BME280;21278;53.314;-1.528;2023-04-19T18:55:08;101198.11;;;7.69;40.24
35099;BME280;21278;53.314;-1.528;2023-04-19T18:59:49;101197.68;;;7.08;41.15
35099;BME280;21278;53.314;-1.528;2023-04-19T19:04:26;101196.43;;;7.57;41.90
35099;BME280;21278;53.314;-1.528;2023-04-19T19:09:07;101197.80;;;6.79;43.45
35099;BME280;21278;53.314;-1.528;2023-04-19T19:13:43;101199.10;;;7.70;40.94
35099;BME280;21278;53.314;-1.528;2023-04-19T19:18:20;101204.62;;;7.35;40.55
35099;BME280;21278;53.314;-1.528;2023-04-19T19:22:57;101205.26;;;6.46;43.74
35099;BME280;21278;53.314;-1.528;2023-04-19T19:27:38;101212.76;;;5.46;44.90
35099;BME280;21278;53.314;-1.528;2023-04-19T19:32:15;101221.74;;;5.86;46.08
35099;BME280;21278;53.314;-1.528;2023-04-19T19:36:56;101223.22;;;5.54;48.27
35099;BME280;21278;53.314;-1.528;2023-04-19T19:41:33;101220.05;;;6.45;46.18
35099;BME280;21278;53.314;-1.528;2023-04-19T19:46:14;101231.78;;;5.89;47.55
35099;BME280;21278;53.314;-1.528;2023-04-19T19:50:51;101236.49;;;3.38;51.44
35099;BME280;21278;53.314;-1.528;2023-04-19T19:55:32;101235.92;;;5.53;50.52
35099;BME280;21278;53.314;-1.528;2023-04-19T20:00:09;101239.94;;;4.13;53.46
35099;BME280;21278;53.314;-1.528;2023-04-19T20:04:51;101244.34;;;5.88;48.88
35099;BME280;21278;53.314;-1.528;2023-04-19T20:09:32;101249.15;;;5.47;49.67
35099;BME280;21278;53.314;-1.528;2023-04-19T20:14:15;101249.07;;;4.03;54.12
35099;BME280;21278;53.314;-1.528;2023-04-19T20:18:59;101248.19;;;4.84;52.52
35099;BME280;21278;53.314;-1.528;2023-04-19T20:23:59;101247.75;;;5.44;50.72
35099;BME280;21278;53.314;-1.528;2023-04-19T20:26:48;101250.10;;;4.96;52.04
35099;BME280;21278;53.314;-1.528;2023-04-19T20:31:28;101247.78;;;4.47;52.25
35099;BME280;21278;53.314;-1.528;2023-04-19T20:36:04;101243.01;;;5.32;50.02
35099;BME280;21278;53.314;-1.528;2023-04-19T20:40:41;101241.11;;;3.83;51.02
35099;BME280;21278;53.314;-1.528;2023-04-19T20:45:29;101237.46;;;4.31;50.80
35099;BME280;21278;53.314;-1.528;2023-04-19T20:50:10;101234.23;;;5.09;50.09
35099;BME280;21278;53.314;-1.528;2023-04-19T20:54:56;101230.98;;;4.28;51.45
35099;BME280;21278;53.314;-1.528;2023-04-19T20:59:38;101221.99;;;4.71;52.97
35099;BME280;21278;53.314;-1.528;2023-04-19T21:04:19;101216.66;;;5.07;49.54
35099;BME280;21278;53.314;-1.528;2023-04-19T21:09:01;101210.14;;;5.51;50.32
35099;BME280;21278;53.314;-1.528;2023-04-19T21:13:42;101213.57;;;4.41;53.31
35099;BME280;21278;53.314;-1.528;2023-04-19T21:18:24;101211.49;;;5.14;51.77
35099;BME280;21278;53.314;-1.528;2023-04-19T21:23:06;101215.69;;;3.77;54.55
35099;BME280;21278;53.314;-1.528;2023-04-19T21:28:02;101212.44;;;3.25;55.77
35099;BME280;21278;53.314;-1.528;2023-04-19T21:32:47;101205.74;;;3.65;57.74
35099;BME280;21278;53.314;-1.528;2023-04-19T21:37:26;101212.20;;;4.36;55.63
35099;BME280;21278;53.314;-1.528;2023-04-19T21:42:07;101205.20;;;5.19;52.64
35099;BME280;21278;53.314;-1.528;2023-04-19T21:46:49;101205.14;;;3.61;56.40
35099;BME280;21278;53.314;-1.528;2023-04-19T21:51:30;101197.36;;;4.93;54.86
35099;BME280;21278;53.314;-1.528;2023-04-19T21:56:07;101192.35;;;3.07;61.95
35099;BME280;21278;53.314;-1.528;2023-04-19T22:00:48;101184.59;;;3.57;61.44
35099;BME280;21278;53.314;-1.528;2023-04-19T22:05:25;101183.27;;;3.95;58.40
35099;BME280;21278;53.314;-1.528;2023-04-19T22:10:08;101183.74;;;3.13;66.14
35099;BME280;21278;53.314;-1.528;2023-04-19T22:14:48;101180.87;;;2.92;67.69
35099;BME280;21278;53.314;-1.528;2023-04-19T22:19:25;101174.82;;;2.86;68.54
35099;BME280;21278;53.314;-1.528;2023-04-19T22:24:01;101174.40;;;2.61;68.75
35099;BME280;21278;53.314;-1.528;2023-04-19T22:28:37;101167.50;;;3.38;63.51
35099;BME280;21278;53.314;-1.528;2023-04-19T22:33:14;101167.63;;;2.69;65.75
35099;BME280;21278;53.314;-1.528;2023-04-19T22:37:50;101162.04;;;3.98;63.02
35099;BME280;21278;53.314;-1.528;2023-04-19T22:42:27;101158.13;;;2.23;67.74
35099;BME280;21278;53.314;-1.528;2023-04-19T22:47:03;101160.78;;;2.31;72.92
35099;BME280;21278;53.314;-1.528;2023-04-19T22:51:40;101159.82;;;4.51;62.55
35099;BME280;21278;53.314;-1.528;2023-04-19T22:56:21;101151.97;;;3.44;63.41
35099;BME280;21278;53.314;-1.528;2023-04-19T23:00:58;101155.33;;;1.78;71.93
35099;BME280;21278;53.314;-1.528;2023-04-19T23:05:35;101148.31;;;2.29;72.00
35099;BME280;21278;53.314;-1.528;2023-04-19T23:10:16;101151.44;;;2.77;72.76
35099;BME280;21278;53.314;-1.528;2023-04-19T23:14:58;101147.70;;;2.05;75.65
35099;BME280;21278;53.314;-1.528;2023-04-19T23:19:35;101139.97;;;3.78;67.93
35099;BME280;21278;53.314;-1.528;2023-04-19T23:24:16;101139.64;;;3.37;70.63
35099;BME280;21278;53.314;-1.528;2023-04-19T23:28:57;101140.75;;;2.57;72.53
35099;BME280;21278;53.314;-1.528;2023-04-19T23:33:34;101133.41;;;2.19;75.42
35099;BME280;21278;53.314;-1.528;2023-04-19T23:38:11;101128.81;;;2.08;74.02
35099;BME280;21278;53.314;-1.528;2023-04-19T23:42:52;101123.77;;;2.86;75.12
35099;BME280;21278;53.314;-1.528;2023-04-19T23:47:28;101121.14;;;2.74;72.88
35099;BME280;21278;53.314;-1.528;2023-04-19T23:52:05;101117.36;;;2.20;78.26
35099;BME280;21278;53.314;-1.528;2023-04-19T23:56:42;101107.37;;;2.95;76.53
